Time;durP1;ratioP1;P1;durP2;ratioP2;P2;SDS_P1;SDS_P2;PMS_P1;PMS_P2;Temp;Humidity;BMP_temperature;BMP_pressure;BME280_temperature;BME280_humidity;BME280_pressure;Samples;Min_cycle;Max_cycle;Signal;HPM_P1;HPM_P2
2023/07/06 00:01:22;;;;;;;12.73;5.10;;;;;;;;;;4912316;28;99087;-78
2023/07/06 00:03:50;;;;;;;9.25;5.07;;;;;;;;;;4906767;28;98570;-78
2023/07/06 00:06:17;;;;;;;5.45;4.25;;;;;;;;;;4913073;28;98561;-78
2023/07/06 00:08:43;;;;;;;10.05;4.47;;;;;;;;;;4917806;28;98912;-78
2023/07/06 00:11:10;;;;;;;18.00;6.65;;;;;;;;;;4916765;28;98265;-78
2023/07/06 00:13:40;;;;;;;9.00;5.65;;;;;;;;;;4910574;28;98638;-78
2023/07/06 00:16:07;;;;;;;11.50;6.03;;;;;;;;;;4913146;28;98017;-78
2023/07/06 00:18:33;;;;;;;11.13;5.38;;;;;;;;;;4892492;28;97736;-78
2023/07/06 00:21:00;;;;;;;13.85;5.65;;;;;;;;;;4909773;28;98350;-78
2023/07/06 00:23:28;;;;;;;15.95;6.25;;;;;;;;;;4906342;28;98527;-78
2023/07/06 00:25:54;;;;;;;13.27;6.07;;;;;;;;;;4911039;28;99442;-79
2023/07/06 00:28:24;;;;;;;12.23;6.53;;;;;;;;;;4892058;28;98562;-78
2023/07/06 00:33:20;;;;;;;11.50;6.20;;;;;;;;;;4908016;28;98530;-78
2023/07/06 00:35:47;;;;;;;21.30;6.35;;;;;;;;;;4912270;28;98223;-78
2023/07/06 00:38:15;;;;;;;12.48;5.63;;;;;;;;;;4906568;28;98595;-78
2023/07/06 00:40:43;;;;;;;10.43;5.97;;;;;;;;;;4904658;28;99290;-78
2023/07/06 00:43:33;;;;;;;13.57;5.50;;;;;;;;;;4890635;28;99330;-78
2023/07/06 00:46:09;;;;;;;11.18;5.35;;;;;;;;;;4895856;28;98661;-78
2023/07/06 00:48:37;;;;;;;11.80;5.95;;;;;;;;;;4912922;28;98518;-78
2023/07/06 00:51:03;;;;;;;17.90;6.55;;;;;;;;;;4919946;28;99316;-78
2023/07/06 00:53:32;;;;;;;22.65;7.80;;;;;;;;;;4905872;28;98490;-79
2023/07/06 00:56:00;;;;;;;18.17;6.57;;;;;;;;;;4902216;28;99470;-78
2023/07/06 00:58:33;;;;;;;13.13;6.38;;;;;;;;;;4898930;28;98586;-78
2023/07/06 01:01:02;;;;;;;18.70;7.05;;;;;;;;;;4913184;28;99026;-78
2023/07/06 01:03:29;;;;;;;19.45;7.13;;;;;;;;;;4912142;28;99506;-78
2023/07/06 01:05:58;;;;;;;12.77;6.25;;;;;;;;;;4900135;28;98730;-78
2023/07/06 01:08:25;;;;;;;17.80;6.18;;;;;;;;;;4904160;28;101353;-79
2023/07/06 01:10:53;;;;;;;16.73;5.95;;;;;;;;;;4901725;28;99240;-78
2023/07/06 01:13:24;;;;;;;8.07;5.45;;;;;;;;;;4912853;28;98322;-78
2023/07/06 01:16:04;;;;;;;14.57;6.15;;;;;;;;;;4915021;28;99705;-78
2023/07/06 01:18:47;;;;;;;14.90;6.07;;;;;;;;;;4907862;28;100732;-78
2023/07/06 01:21:19;;;;;;;12.95;4.97;;;;;;;;;;4907606;28;98549;-78
2023/07/06 01:23:45;;;;;;;23.30;6.03;;;;;;;;;;4910140;28;98525;-78
2023/07/06 01:26:25;;;;;;;15.13;6.10;;;;;;;;;;4912154;28;98533;-78
2023/07/06 01:29:12;;;;;;;9.43;5.82;;;;;;;;;;4913681;28;98522;-78
2023/07/06 01:31:45;;;;;;;18.08;6.63;;;;;;;;;;4897772;28;99207;-78
2023/07/06 01:34:22;;;;;;;17.27;6.65;;;;;;;;;;4911842;28;97896;-78
2023/07/06 01:36:54;;;;;;;16.13;7.07;;;;;;;;;;4900517;28;98442;-78
2023/07/06 01:39:35;;;;;;;15.15;7.63;;;;;;;;;;4914115;28;99411;-78
2023/07/06 01:42:06;;;;;;;24.15;7.45;;;;;;;;;;4893303;28;100871;-77
2023/07/06 01:44:33;;;;;;;16.92;6.75;;;;;;;;;;4923249;28;100448;-77
2023/07/06 01:47:00;;;;;;;22.80;7.47;;;;;;;;;;4908854;28;98541;-77
2023/07/06 01:49:26;;;;;;;18.30;7.07;;;;;;;;;;4905821;28;98532;-78
2023/07/06 01:51:57;;;;;;;17.38;6.28;;;;;;;;;;4922159;28;101144;-79
2023/07/06 01:54:29;;;;;;;14.50;5.95;;;;;;;;;;4911553;28;99040;-78
2023/07/06 01:56:57;;;;;;;;;;;;;;;;;;4910818;28;98555;-78
2023/07/06 01:59:25;;;;;;;16.08;6.13;;;;;;;;;;4925150;28;117789;-78
2023/07/06 02:01:59;;;;;;;15.93;6.60;;;;;;;;;;4914448;28;98374;-78
2023/07/06 02:04:31;;;;;;;12.63;6.55;;;;;;;;;;4910564;28;99115;-78
2023/07/06 02:07:00;;;;;;;15.90;7.03;;;;;;;;;;4899719;28;99238;-78
2023/07/06 02:09:26;;;;;;;14.75;6.47;;;;;;;;;;4900632;28;101972;-77
2023/07/06 02:11:53;;;;;;;16.20;6.40;;;;;;;;;;4910822;28;98470;-78
2023/07/06 02:14:21;;;;;;;10.73;6.03;;;;;;;;;;4889544;28;98398;-78
2023/07/06 02:16:51;;;;;;;18.10;6.22;;;;;;;;;;4907746;28;98669;-78
2023/07/06 02:19:18;;;;;;;15.63;6.18;;;;;;;;;;4895580;28;98543;-78
2023/07/06 02:21:46;;;;;;;22.33;6.03;;;;;;;;;;4901184;28;98482;-79
2023/07/06 02:24:12;;;;;;;33.38;6.90;;;;;;;;;;4915063;28;99143;-79
2023/07/06 02:26:38;;;;;;;17.10;5.72;;;;;;;;;;4889453;28;98964;-78
2023/07/06 02:29:05;;;;;;;11.23;6.47;;;;;;;;;;4911214;28;98366;-77
2023/07/06 02:31:33;;;;;;;16.88;5.53;;;;;;;;;;4894755;28;98930;-78
2023/07/06 02:34:01;;;;;;;18.95;6.60;;;;;;;;;;4903607;28;98502;-78
2023/07/06 02:36:27;;;;;;;13.20;6.10;;;;;;;;;;4907173;28;99046;-79
2023/07/06 02:38:55;;;;;;;17.17;6.60;;;;;;;;;;4893951;28;101543;-78
2023/07/06 02:41:21;;;;;;;24.65;6.47;;;;;;;;;;4911417;28;98516;-78
2023/07/06 02:43:48;;;;;;;14.93;6.80;;;;;;;;;;4902095;28;98655;-79
2023/07/06 02:46:19;;;;;;;15.70;5.80;;;;;;;;;;4911373;28;98582;-78
2023/07/06 02:48:47;;;;;;;14.68;6.93;;;;;;;;;;4888412;28;98231;-78
2023/07/06 02:51:15;;;;;;;16.65;6.20;;;;;;;;;;4897213;28;98487;-78
2023/07/06 02:53:42;;;;;;;13.45;6.20;;;;;;;;;;4894660;28;98664;-79
2023/07/06 02:56:09;;;;;;;14.63;6.38;;;;;;;;;;4912399;28;99261;-78
2023/07/06 02:58:35;;;;;;;20.00;6.13;;;;;;;;;;4911713;28;99271;-79
2023/07/06 03:01:01;;;;;;;13.13;6.07;;;;;;;;;;4901281;28;100281;-78
2023/07/06 03:03:28;;;;;;;13.98;5.22;;;;;;;;;;4910067;28;98539;-78
2023/07/06 03:05:55;;;;;;;17.15;6.00;;;;;;;;;;4903898;28;99394;-78
2023/07/06 03:08:22;;;;;;;15.75;6.60;;;;;;;;;;4911107;28;98614;-78
2023/07/06 03:10:48;;;;;;;17.63;5.80;;;;;;;;;;4896263;28;98479;-78
2023/07/06 03:13:15;;;;;;;12.30;6.32;;;;;;;;;;4909327;28;97750;-77
2023/07/06 03:15:42;;;;;;;10.45;4.45;;;;;;;;;;4909835;28;98515;-77
2023/07/06 03:18:09;;;;;;;11.48;5.45;;;;;;;;;;4894610;28;98497;-78
2023/07/06 03:20:36;;;;;;;8.38;4.80;;;;;;;;;;4909916;28;99518;-79
2023/07/06 03:23:03;;;;;;;9.50;5.75;;;;;;;;;;4904681;28;99525;-78
2023/07/06 03:25:30;;;;;;;12.80;6.03;;;;;;;;;;4890571;28;99659;-78
2023/07/06 03:27:56;;;;;;;17.38;6.60;;;;;;;;;;4897434;28;98623;-78
2023/07/06 03:30:27;;;;;;;20.70;6.10;;;;;;;;;;4909492;28;100543;-79
2023/07/06 03:32:59;;;;;;;17.33;6.10;;;;;;;;;;4893948;28;98569;-78
2023/07/06 03:35:26;;;;;;;11.98;5.75;;;;;;;;;;4901115;28;98799;-78
2023/07/06 03:37:58;;;;;;;13.57;5.70;;;;;;;;;;4896314;28;98431;-78
2023/07/06 03:40:29;;;;;;;19.13;6.10;;;;;;;;;;4902653;28;98585;-78
2023/07/06 03:42:56;;;;;;;13.48;5.85;;;;;;;;;;4897453;28;97942;-78
2023/07/06 03:45:23;;;;;;;15.23;6.03;;;;;;;;;;4913259;28;100384;-78
2023/07/06 03:47:50;;;;;;;13.77;5.80;;;;;;;;;;4898106;28;98252;-79
2023/07/06 03:50:20;;;;;;;18.95;5.85;;;;;;;;;;4917223;28;98460;-78
2023/07/06 03:52:47;;;;;;;12.27;5.35;;;;;;;;;;4897534;28;98626;-79
2023/07/06 03:55:19;;;;;;;16.67;7.85;;;;;;;;;;4913347;28;100914;-78
2023/07/06 03:57:47;;;;;;;17.10;6.60;;;;;;;;;;4898154;28;98632;-78
2023/07/06 04:00:29;;;;;;;23.23;6.47;;;;;;;;;;4914380;28;100004;-79
2023/07/06 04:02:57;;;;;;;19.05;6.60;;;;;;;;;;4913611;28;98943;-79
2023/07/06 04:05:31;;;;;;;19.80;6.70;;;;;;;;;;4901301;28;98612;-79
2023/07/06 04:08:03;;;;;;;15.10;6.53;;;;;;;;;;4897728;28;98581;-78
2023/07/06 04:10:31;;;;;;;14.43;6.78;;;;;;;;;;4918961;28;99369;-79
2023/07/06 04:12:58;;;;;;;16.77;7.05;;;;;;;;;;4899866;28;98551;-79
2023/07/06 04:15:25;;;;;;;17.63;6.63;;;;;;;;;;4897054;28;98469;-78
2023/07/06 04:17:55;;;;;;;16.98;6.80;;;;;;;;;;4918358;28;99306;-78
2023/07/06 04:20:24;;;;;;;18.35;6.50;;;;;;;;;;4902131;28;98495;-78
2023/07/06 04:22:54;;;;;;;16.35;7.07;;;;;;;;;;4913336;28;98789;-78
2023/07/06 04:25:22;;;;;;;18.20;6.47;;;;;;;;;;4881590;28;99326;-79
2023/07/06 04:27:48;;;;;;;27.23;7.55;;;;;;;;;;4905295;28;97921;-79
2023/07/06 04:30:16;;;;;;;14.68;6.28;;;;;;;;;;4912556;28;98634;-78
2023/07/06 04:32:48;;;;;;;17.90;7.03;;;;;;;;;;4895335;28;98550;-78
2023/07/06 04:35:21;;;;;;;21.98;7.75;;;;;;;;;;4896672;28;99280;-79
2023/07/06 04:37:49;;;;;;;16.23;6.72;;;;;;;;;;4916497;28;101184;-78
2023/07/06 04:40:18;;;;;;;15.32;6.13;;;;;;;;;;4905273;28;98469;-78
2023/07/06 04:42:49;;;;;;;18.48;7.32;;;;;;;;;;4913032;28;98531;-78
2023/07/06 04:45:16;;;;;;;25.85;6.82;;;;;;;;;;4896577;28;99356;-78
2023/07/06 04:47:44;;;;;;;14.57;6.53;;;;;;;;;;4902747;28;99364;-78
2023/07/06 04:50:17;;;;;;;17.08;7.03;;;;;;;;;;4892536;28;100132;-79
2023/07/06 04:52:45;;;;;;;16.60;6.07;;;;;;;;;;4903507;28;98316;-79
2023/07/06 04:55:12;;;;;;;23.52;7.32;;;;;;;;;;4902034;28;98455;-78
2023/07/06 04:57:39;;;;;;;15.23;6.13;;;;;;;;;;4907487;28;98942;-79
2023/07/06 05:00:17;;;;;;;22.83;6.50;;;;;;;;;;4911226;28;99365;-79
2023/07/06 05:02:47;;;;;;;16.27;6.80;;;;;;;;;;4912528;28;98528;-79
2023/07/06 05:05:17;;;;;;;13.75;6.18;;;;;;;;;;4908446;28;99211;-79
2023/07/06 05:07:45;;;;;;;18.05;6.75;;;;;;;;;;4901594;28;98516;-78
2023/07/06 05:10:13;;;;;;;22.67;6.72;;;;;;;;;;4901410;28;99005;-78
2023/07/06 05:12:39;;;;;;;19.27;6.57;;;;;;;;;;4906866;28;98712;-78
2023/07/06 05:15:07;;;;;;;18.63;7.40;;;;;;;;;;4889681;28;99241;-78
2023/07/06 05:17:33;;;;;;;24.50;6.60;;;;;;;;;;4918436;28;97813;-78
2023/07/06 05:20:00;;;;;;;27.00;5.95;;;;;;;;;;4906128;28;98589;-78
2023/07/06 05:22:26;;;;;;;20.83;6.28;;;;;;;;;;4890271;28;98999;-78
2023/07/06 05:24:53;;;;;;;25.85;8.93;;;;;;;;;;4896927;28;101357;-78
2023/07/06 05:27:19;;;;;;;29.58;8.75;;;;;;;;;;4895186;28;98658;-78
2023/07/06 05:29:46;;;;;;;19.10;7.07;;;;;;;;;;4903192;28;98893;-79
2023/07/06 05:32:12;;;;;;;24.23;8.23;;;;;;;;;;4914139;28;98489;-78
2023/07/06 05:34:39;;;;;;;25.40;7.22;;;;;;;;;;4912059;28;98554;-79
2023/07/06 05:37:05;;;;;;;20.75;8.38;;;;;;;;;;4884769;28;101133;-78
2023/07/06 05:39:32;;;;;;;23.23;8.07;;;;;;;;;;4916496;28;98604;-78
2023/07/06 05:41:58;;;;;;;26.50;8.35;;;;;;;;;;4911950;28;100472;-79
2023/07/06 05:44:25;;;;;;;20.05;8.60;;;;;;;;;;4897966;28;100919;-78
2023/07/06 05:46:51;;;;;;;22.15;8.43;;;;;;;;;;4900986;28;99018;-78
2023/07/06 05:49:18;;;;;;;23.02;7.50;;;;;;;;;;4897680;28;99981;-78
2023/07/06 05:51:44;;;;;;;29.67;9.48;;;;;;;;;;4899437;28;102308;-78
2023/07/06 05:54:11;;;;;;;21.73;8.07;;;;;;;;;;4915554;28;99366;-78
2023/07/06 05:56:37;;;;;;;22.65;8.05;;;;;;;;;;4903820;28;98537;-79
2023/07/06 05:59:04;;;;;;;28.20;8.00;;;;;;;;;;4897962;28;100223;-78
2023/07/06 06:01:32;;;;;;;27.92;9.15;;;;;;;;;;4890378;28;98848;-79
2023/07/06 06:04:01;;;;;;;29.08;9.13;;;;;;;;;;4912335;28;99659;-78
2023/07/06 06:06:28;;;;;;;34.60;9.48;;;;;;;;;;4917980;28;97834;-78
2023/07/06 06:08:54;;;;;;;30.75;9.07;;;;;;;;;;4898653;28;98819;-79
2023/07/06 06:11:21;;;;;;;32.97;9.80;;;;;;;;;;4916844;28;98442;-78
2023/07/06 06:13:49;;;;;;;30.60;10.25;;;;;;;;;;4913345;28;99312;-78
2023/07/06 06:16:16;;;;;;;23.13;8.65;;;;;;;;;;4894020;28;100111;-78
2023/07/06 06:18:44;;;;;;;31.05;9.70;;;;;;;;;;4912325;28;98706;-79
2023/07/06 06:21:10;;;;;;;30.92;10.38;;;;;;;;;;4913111;28;98195;-78
2023/07/06 06:23:37;;;;;;;23.77;10.23;;;;;;;;;;4902942;28;98539;-78
2023/07/06 06:26:04;;;;;;;35.78;10.27;;;;;;;;;;4894282;28;98529;-79
2023/07/06 06:28:30;;;;;;;25.98;9.80;;;;;;;;;;4911319;28;98426;-79
2023/07/06 06:30:57;;;;;;;32.13;9.48;;;;;;;;;;4911718;28;97901;-78
2023/07/06 06:33:23;;;;;;;25.38;10.70;;;;;;;;;;4894170;28;98664;-79
2023/07/06 06:35:50;;;;;;;26.77;9.52;;;;;;;;;;4901277;28;98339;-79
2023/07/06 06:38:17;;;;;;;35.13;11.63;;;;;;;;;;4899764;28;99300;-78
2023/07/06 06:40:44;;;;;;;30.17;9.77;;;;;;;;;;4904861;28;98443;-78
2023/07/06 06:43:11;;;;;;;28.85;10.27;;;;;;;;;;4912270;28;99189;-79
2023/07/06 06:45:39;;;;;;;25.38;10.45;;;;;;;;;;4922453;28;98599;-78
2023/07/06 06:48:06;;;;;;;31.02;11.35;;;;;;;;;;4895045;28;99070;-79
2023/07/06 06:50:32;;;;;;;31.95;11.00;;;;;;;;;;4903509;28;101601;-78
2023/07/06 06:52:59;;;;;;;36.60;12.60;;;;;;;;;;4911783;28;99194;-78
2023/07/06 06:55:26;;;;;;;30.02;13.77;;;;;;;;;;4907143;28;98065;-78
2023/07/06 06:57:53;;;;;;;31.52;14.18;;;;;;;;;;4905152;28;99600;-79
2023/07/06 07:00:19;;;;;;;35.85;13.95;;;;;;;;;;4895261;28;98306;-78
2023/07/06 07:02:46;;;;;;;35.75;12.65;;;;;;;;;;4911544;28;99198;-78
2023/07/06 07:05:15;;;;;;;33.42;14.30;;;;;;;;;;4895132;28;99726;-78
2023/07/06 07:07:42;;;;;;;39.97;13.50;;;;;;;;;;4912658;28;98385;-78
2023/07/06 07:10:11;;;;;;;33.35;12.95;;;;;;;;;;4899684;28;98460;-78
2023/07/06 07:12:42;;;;;;;28.55;14.55;;;;;;;;;;4911896;28;98527;-79
2023/07/06 07:15:09;;;;;;;28.65;11.27;;;;;;;;;;4899430;28;98326;-79
2023/07/06 07:17:36;;;;;;;31.40;12.77;;;;;;;;;;4898319;28;99360;-79
2023/07/06 07:20:03;;;;;;;30.00;13.27;;;;;;;;;;4916523;28;97670;-78
2023/07/06 07:22:29;;;;;;;33.78;12.93;;;;;;;;;;4912195;28;98456;-80
2023/07/06 07:24:58;;;;;;;26.48;13.18;;;;;;;;;;4918386;28;98600;-79
2023/07/06 07:27:26;;;;;;;27.75;12.77;;;;;;;;;;4897841;28;99061;-78
2023/07/06 07:29:53;;;;;;;25.58;12.45;;;;;;;;;;4915972;28;98380;-79
2023/07/06 07:32:20;;;;;;;26.38;13.02;;;;;;;;;;4898089;28;98614;-79
2023/07/06 07:34:50;;;;;;;29.70;13.10;;;;;;;;;;4888489;28;98662;-79
2023/07/06 07:37:21;;;;;;;25.00;12.30;;;;;;;;;;4876873;28;99186;-78
2023/07/06 07:39:48;;;;;;;33.05;12.75;;;;;;;;;;4891891;28;98679;-79
2023/07/06 07:42:16;;;;;;;26.65;11.85;;;;;;;;;;4875863;28;100299;-78
2023/07/06 07:44:45;;;;;;;31.02;11.88;;;;;;;;;;4880611;28;98552;-79
2023/07/06 07:47:12;;;;;;;30.98;10.50;;;;;;;;;;4880614;28;98552;-79
2023/07/06 07:49:38;;;;;;;20.60;9.10;;;;;;;;;;4879555;28;98195;-79
2023/07/06 07:52:06;;;;;;;19.27;9.30;;;;;;;;;;4872013;28;99254;-79
2023/07/06 07:54:33;;;;;;;26.13;9.02;;;;;;;;;;4868411;28;99409;-79
2023/07/06 07:56:59;;;;;;;22.55;9.13;;;;;;;;;;4892843;28;99218;-79
2023/07/06 07:59:26;;;;;;;23.88;8.45;;;;;;;;;;4891658;28;98963;-79
2023/07/06 08:01:52;;;;;;;18.95;8.50;;;;;;;;;;4883630;28;99194;-78
2023/07/06 08:04:20;;;;;;;19.65;8.70;;;;;;;;;;4894326;28;101512;-79
2023/07/06 08:06:46;;;;;;;23.05;8.90;;;;;;;;;;4877603;28;98371;-79
2023/07/06 08:09:13;;;;;;;17.98;8.05;;;;;;;;;;4882635;28;97680;-80
2023/07/06 08:11:46;;;;;;;22.83;8.10;;;;;;;;;;4882931;28;98551;-80
2023/07/06 08:14:13;;;;;;;21.10;7.70;;;;;;;;;;4860585;28;100180;-79
2023/07/06 08:16:40;;;;;;;20.20;8.30;;;;;;;;;;4891182;28;99447;-79
2023/07/06 08:19:07;;;;;;;25.60;7.70;;;;;;;;;;4877126;28;98505;-79
2023/07/06 08:21:55;;;;;;;12.13;6.13;;;;;;;;;;4877029;28;98967;-79
2023/07/06 08:24:36;;;;;;;13.23;4.72;;;;;;;;;;4877587;28;100137;-78
2023/07/06 08:27:03;;;;;;;20.92;6.70;;;;;;;;;;4893459;28;98566;-79
2023/07/06 08:29:31;;;;;;;15.40;6.22;;;;;;;;;;4878728;28;98441;-79
2023/07/06 08:31:59;;;;;;;15.65;5.70;;;;;;;;;;4877010;28;98411;-79
2023/07/06 08:34:26;;;;;;;21.23;5.25;;;;;;;;;;4883813;28;97605;-79
2023/07/06 08:36:54;;;;;;;15.38;5.40;;;;;;;;;;4908835;28;98498;-78
2023/07/06 08:39:21;;;;;;;12.55;4.85;;;;;;;;;;4896791;28;98530;-78
2023/07/06 08:41:49;;;;;;;16.00;4.95;;;;;;;;;;4913287;28;99520;-79
2023/07/06 08:44:15;;;;;;;14.07;4.60;;;;;;;;;;4902434;28;98512;-78
2023/07/06 08:46:48;;;;;;;9.32;4.22;;;;;;;;;;4901940;28;98483;-79
2023/07/06 08:49:29;;;;;;;10.15;4.40;;;;;;;;;;4896439;28;99748;-79
2023/07/06 08:52:01;;;;;;;17.75;4.72;;;;;;;;;;4885412;28;100559;-78
2023/07/06 08:54:28;;;;;;;11.52;4.53;;;;;;;;;;4909223;28;98221;-79
2023/07/06 08:56:56;;;;;;;10.73;5.80;;;;;;;;;;4917206;28;98587;-79
2023/07/06 08:59:37;;;;;;;13.05;5.72;;;;;;;;;;4914596;28;97756;-79
2023/07/06 09:02:28;;;;;;;17.15;5.47;;;;;;;;;;4902889;28;98236;-79
2023/07/06 09:04:56;;;;;;;14.93;5.40;;;;;;;;;;4895895;28;98478;-79
2023/07/06 09:07:30;;;;;;;11.60;4.80;;;;;;;;;;4914216;28;99155;-79
2023/07/06 09:09:58;;;;;;;17.10;4.60;;;;;;;;;;4897253;28;98430;-79
2023/07/06 09:12:39;;;;;;;14.77;4.57;;;;;;;;;;4909733;28;98355;-80
2023/07/06 09:15:10;;;;;;;12.75;4.70;;;;;;;;;;4893722;28;98581;-79
2023/07/06 09:17:46;;;;;;;19.80;4.72;;;;;;;;;;4899074;28;100024;-79
2023/07/06 09:20:14;;;;;;;22.65;5.03;;;;;;;;;;4889261;28;98466;-80
2023/07/06 09:22:41;;;;;;;12.63;4.38;;;;;;;;;;4893904;28;98302;-79
2023/07/06 09:25:12;;;;;;;11.48;4.20;;;;;;;;;;4901115;28;97486;-78
2023/07/06 09:27:39;;;;;;;9.48;4.30;;;;;;;;;;4913348;28;98487;-79
2023/07/06 09:30:07;;;;;;;12.02;3.78;;;;;;;;;;4913248;28;98574;-79
2023/07/06 09:32:34;;;;;;;14.20;3.58;;;;;;;;;;4894879;28;102057;-79
2023/07/06 09:35:06;;;;;;;12.35;3.85;;;;;;;;;;4893444;28;98227;-79
2023/07/06 09:37:32;;;;;;;11.90;3.45;;;;;;;;;;4897861;28;98827;-80
2023/07/06 09:40:03;;;;;;;10.60;3.33;;;;;;;;;;4886289;28;100321;-79
2023/07/06 09:42:49;;;;;;;18.42;3.55;;;;;;;;;;4898186;28;99122;-78
2023/07/06 09:45:19;;;;;;;13.32;4.03;;;;;;;;;;4890144;28;98455;-79
2023/07/06 09:47:48;;;;;;;10.85;3.50;;;;;;;;;;4893463;28;98487;-79
2023/07/06 09:50:18;;;;;;;15.02;4.30;;;;;;;;;;4908495;28;97800;-78
2023/07/06 09:52:45;;;;;;;10.85;4.07;;;;;;;;;;4890555;28;99664;-78
2023/07/06 09:55:23;;;;;;;12.27;4.47;;;;;;;;;;4892173;28;98643;-78
2023/07/06 09:57:50;;;;;;;10.15;4.38;;;;;;;;;;4883300;28;99180;-78
2023/07/06 10:00:19;;;;;;;15.55;3.90;;;;;;;;;;4892217;28;98480;-78
2023/07/06 10:02:53;;;;;;;12.02;5.00;;;;;;;;;;4900710;28;97680;-79
2023/07/06 10:05:22;;;;;;;13.10;4.50;;;;;;;;;;4897608;28;98427;-78
2023/07/06 10:08:02;;;;;;;11.63;4.15;;;;;;;;;;4897734;28;98599;-78
2023/07/06 10:10:52;;;;;;;10.88;4.43;;;;;;;;;;4897819;28;99408;-78
2023/07/06 10:13:24;;;;;;;10.45;3.55;;;;;;;;;;4900520;28;99610;-79
2023/07/06 10:15:56;;;;;;;11.65;4.00;;;;;;;;;;4913822;28;97755;-78
2023/07/06 10:18:27;;;;;;;11.18;3.80;;;;;;;;;;4882109;28;98436;-78
2023/07/06 10:20:56;;;;;;;9.68;3.38;;;;;;;;;;4891549;28;100033;-78
2023/07/06 10:23:41;;;;;;;10.50;4.25;;;;;;;;;;4879379;28;99170;-78
2023/07/06 10:26:17;;;;;;;10.40;3.83;;;;;;;;;;4897462;28;100267;-78
2023/07/06 10:28:53;;;;;;;13.50;3.88;;;;;;;;;;4892314;28;98449;-78
2023/07/06 10:31:25;;;;;;;11.80;4.07;;;;;;;;;;4894085;28;98112;-79
2023/07/06 10:34:07;;;;;;;14.05;3.85;;;;;;;;;;4904176;28;98555;-78
2023/07/06 10:36:34;;;;;;;9.27;3.38;;;;;;;;;;4892128;28;98730;-78
2023/07/06 10:39:10;;;;;;;10.43;3.97;;;;;;;;;;4892908;28;99194;-78
2023/07/06 10:41:40;;;;;;;17.73;4.82;;;;;;;;;;4892756;28;98252;-78
2023/07/06 10:44:26;;;;;;;12.65;4.32;;;;;;;;;;4893440;28;99121;-78
2023/07/06 10:46:53;;;;;;;10.70;3.67;;;;;;;;;;4894791;28;98860;-78
2023/07/06 10:49:21;;;;;;;9.07;3.85;;;;;;;;;;4881461;28;99377;-79
2023/07/06 10:51:52;;;;;;;12.27;3.80;;;;;;;;;;4885491;28;99678;-78
2023/07/06 10:54:28;;;;;;;19.58;4.65;;;;;;;;;;4907135;28;101138;-78
2023/07/06 10:57:00;;;;;;;15.90;4.05;;;;;;;;;;4888332;28;98652;-78
2023/07/06 10:59:48;;;;;;;22.88;4.22;;;;;;;;;;4895814;28;99844;-77
2023/07/06 11:02:23;;;;;;;10.30;4.13;;;;;;;;;;4884859;28;98921;-78
2023/07/06 11:05:07;;;;;;;16.77;4.43;;;;;;;;;;4893576;28;98037;-77
2023/07/06 11:07:41;;;;;;;12.63;4.35;;;;;;;;;;4887480;28;98017;-77
2023/07/06 11:10:15;;;;;;;15.10;4.47;;;;;;;;;;4896223;28;99270;-77
2023/07/06 11:13:02;;;;;;;16.02;3.97;;;;;;;;;;4912740;28;98907;-78
2023/07/06 11:15:38;;;;;;;12.18;4.28;;;;;;;;;;4895196;28;99881;-78
2023/07/06 11:18:14;;;;;;;9.82;3.65;;;;;;;;;;4886545;28;98613;-78
2023/07/06 11:20:43;;;;;;;11.68;3.85;;;;;;;;;;4896578;28;99057;-78
2023/07/06 11:23:13;;;;;;;13.45;3.58;;;;;;;;;;4901470;28;98589;-78
2023/07/06 11:25:39;;;;;;;21.48;4.38;;;;;;;;;;4899188;28;98537;-78
2023/07/06 11:28:10;;;;;;;9.07;3.85;;;;;;;;;;4896040;28;98612;-78
2023/07/06 11:30:39;;;;;;;18.05;5.05;;;;;;;;;;4891992;28;98504;-78
2023/07/06 11:33:15;;;;;;;10.38;3.40;;;;;;;;;;4911865;28;97802;-78
2023/07/06 11:35:59;;;;;;;8.65;4.18;;;;;;;;;;4910173;28;98612;-77
2023/07/06 11:38:28;;;;;;;14.05;3.97;;;;;;;;;;4886520;28;99297;-78
2023/07/06 11:41:11;;;;;;;8.60;3.33;;;;;;;;;;4912272;28;99460;-77
2023/07/06 11:43:49;;;;;;;9.30;3.00;;;;;;;;;;4891070;28;98395;-78
2023/07/06 11:46:34;;;;;;;9.68;3.13;;;;;;;;;;4909291;28;98358;-78
2023/07/06 11:49:13;;;;;;;10.50;2.50;;;;;;;;;;4900089;28;98868;-77
2023/07/06 11:51:39;;;;;;;6.28;2.10;;;;;;;;;;4895947;28;98355;-78
2023/07/06 11:54:19;;;;;;;7.93;2.08;;;;;;;;;;4899247;28;100360;-79
2023/07/06 11:56:53;;;;;;;4.70;1.35;;;;;;;;;;4888651;28;99078;-78
2023/07/06 11:59:36;;;;;;;8.70;1.77;;;;;;;;;;4903424;28;97726;-79
2023/07/06 12:02:15;;;;;;;2.65;1.20;;;;;;;;;;4902704;28;99192;-78
2023/07/06 12:04:45;;;;;;;3.92;1.40;;;;;;;;;;4891162;28;98557;-78
2023/07/06 12:07:22;;;;;;;5.63;1.38;;;;;;;;;;4910481;28;99317;-79
2023/07/06 12:09:49;;;;;;;6.15;1.92;;;;;;;;;;4902489;28;98412;-79
2023/07/06 12:12:16;;;;;;;7.65;1.25;;;;;;;;;;4912360;28;98685;-78
2023/07/06 12:14:43;;;;;;;4.00;1.30;;;;;;;;;;4904122;28;98410;-79
2023/07/06 12:17:11;;;;;;;5.60;1.60;;;;;;;;;;4915226;28;98591;-78
2023/07/06 12:19:41;;;;;;;5.82;1.42;;;;;;;;;;4921587;28;98513;-79
2023/07/06 12:22:12;;;;;;;9.75;1.77;;;;;;;;;;4883414;28;101202;-78
2023/07/06 12:24:39;;;;;;;3.53;1.35;;;;;;;;;;4914729;28;99819;-78
2023/07/06 12:27:11;;;;;;;4.45;1.50;;;;;;;;;;4916819;28;98510;-79
2023/07/06 12:29:38;;;;;;;5.43;1.77;;;;;;;;;;4895655;28;100217;-78
2023/07/06 12:32:08;;;;;;;3.55;1.23;;;;;;;;;;4902050;28;99275;-79
2023/07/06 12:34:35;;;;;;;5.55;2.15;;;;;;;;;;4913447;28;98605;-79
2023/07/06 12:37:02;;;;;;;5.22;1.55;;;;;;;;;;4912085;28;99600;-79
2023/07/06 12:39:34;;;;;;;11.32;1.55;;;;;;;;;;4909524;28;98563;-79
2023/07/06 12:42:01;;;;;;;3.83;1.30;;;;;;;;;;4918349;28;99537;-79
2023/07/06 12:44:29;;;;;;;7.45;1.65;;;;;;;;;;4896821;28;98486;-79
2023/07/06 12:47:01;;;;;;;6.20;1.67;;;;;;;;;;4915189;28;98177;-79
2023/07/06 12:49:29;;;;;;;3.97;1.35;;;;;;;;;;4914318;28;97861;-78
2023/07/06 12:51:57;;;;;;;4.50;1.52;;;;;;;;;;4914435;28;98866;-79
2023/07/06 12:54:28;;;;;;;4.15;1.05;;;;;;;;;;4913573;28;98764;-79
2023/07/06 12:56:58;;;;;;;3.38;0.77;;;;;;;;;;4910843;28;98765;-78
2023/07/06 12:59:31;;;;;;;1.47;1.00;;;;;;;;;;4905329;28;99333;-79
2023/07/06 13:01:59;;;;;;;2.05;1.05;;;;;;;;;;4912907;28;99037;-79
2023/07/06 13:04:40;;;;;;;1.20;0.90;;;;;;;;;;4908530;28;98539;-79
2023/07/06 13:07:08;;;;;;;1.17;0.80;;;;;;;;;;4908296;28;98745;-79
2023/07/06 13:09:34;;;;;;;3.35;1.15;;;;;;;;;;4913365;28;98489;-79
2023/07/06 13:12:08;;;;;;;1.25;0.75;;;;;;;;;;4903701;28;102288;-79
2023/07/06 13:14:38;;;;;;;3.75;1.23;;;;;;;;;;4915098;28;97446;-79
2023/07/06 13:17:08;;;;;;;6.07;1.02;;;;;;;;;;4903607;28;98517;-80
2023/07/06 13:19:34;;;;;;;3.38;0.80;;;;;;;;;;4913187;28;99238;-79
2023/07/06 13:22:01;;;;;;;4.28;0.80;;;;;;;;;;4902149;28;98851;-79
2023/07/06 13:24:32;;;;;;;3.33;0.90;;;;;;;;;;4914266;28;99943;-79
2023/07/06 13:27:01;;;;;;;5.57;1.20;;;;;;;;;;4895755;28;98553;-79
2023/07/06 13:29:28;;;;;;;2.08;0.70;;;;;;;;;;4909884;28;99161;-79
2023/07/06 13:31:57;;;;;;;2.50;0.80;;;;;;;;;;4910563;28;98392;-79
2023/07/06 13:34:23;;;;;;;5.85;1.00;;;;;;;;;;4911537;28;98524;-79
2023/07/06 13:36:53;;;;;;;5.07;0.98;;;;;;;;;;4898628;28;100071;-80
2023/07/06 13:39:20;;;;;;;3.45;0.80;;;;;;;;;;4898005;28;99854;-79
2023/07/06 13:41:46;;;;;;;2.60;0.90;;;;;;;;;;4909566;28;98381;-79
2023/07/06 13:44:13;;;;;;;2.75;0.90;;;;;;;;;;4913724;28;98562;-79
2023/07/06 13:46:41;;;;;;;3.28;0.82;;;;;;;;;;4902392;28;99341;-76
2023/07/06 13:49:08;;;;;;;4.68;0.73;;;;;;;;;;4910606;28;99544;-79
2023/07/06 13:51:34;;;;;;;1.27;0.90;;;;;;;;;;4908672;28;98519;-79
2023/07/06 13:54:01;;;;;;;3.58;0.68;;;;;;;;;;4911069;28;98401;-77
2023/07/06 13:56:28;;;;;;;3.05;0.98;;;;;;;;;;4895084;28;98456;-77
2023/07/06 13:58:54;;;;;;;3.50;0.63;;;;;;;;;;4897372;28;99287;-79
2023/07/06 14:01:23;;;;;;;2.55;1.00;;;;;;;;;;4913227;28;98493;-77
2023/07/06 14:03:53;;;;;;;8.50;0.95;;;;;;;;;;4909817;28;97914;-76
2023/07/06 14:06:20;;;;;;;1.38;0.90;;;;;;;;;;4905554;28;99231;-77
2023/07/06 14:08:47;;;;;;;4.38;0.82;;;;;;;;;;4911571;28;98519;-77
2023/07/06 14:11:14;;;;;;;1.73;0.88;;;;;;;;;;4904385;28;98950;-77
2023/07/06 14:13:40;;;;;;;1.75;0.88;;;;;;;;;;4903992;28;98870;-77
2023/07/06 14:16:11;;;;;;;5.20;1.02;;;;;;;;;;4902653;28;98572;-76
2023/07/06 14:18:38;;;;;;;3.83;1.20;;;;;;;;;;4902614;28;99129;-76
2023/07/06 14:21:05;;;;;;;2.83;0.90;;;;;;;;;;4911230;28;98583;-77
2023/07/06 14:23:33;;;;;;;8.00;0.80;;;;;;;;;;4898170;28;98634;-77
2023/07/06 14:26:00;;;;;;;3.35;1.10;;;;;;;;;;4910829;28;98476;-77
2023/07/06 14:28:27;;;;;;;2.08;0.93;;;;;;;;;;4911694;28;97776;-78
2023/07/06 14:30:56;;;;;;;3.88;1.00;;;;;;;;;;4914101;28;98409;-78
2023/07/06 14:33:27;;;;;;;1.92;0.82;;;;;;;;;;4893297;28;98599;-77
2023/07/06 14:35:54;;;;;;;1.48;0.75;;;;;;;;;;4892555;28;99063;-78
2023/07/06 14:38:22;;;;;;;1.88;0.82;;;;;;;;;;4893465;28;98298;-78
2023/07/06 14:40:48;;;;;;;2.00;0.88;;;;;;;;;;4911161;28;98535;-77
2023/07/06 14:43:15;;;;;;;2.78;0.60;;;;;;;;;;4890033;28;100449;-77
2023/07/06 14:45:44;;;;;;;1.35;0.80;;;;;;;;;;4909991;28;98573;-78
2023/07/06 14:48:11;;;;;;;2.53;0.83;;;;;;;;;;4909587;28;99146;-77